sensor_id;sensor_type;location;lat;lon;timestamp;noise_LAeq;noise_LA_min;noise_LA_max;noise_LA01;noise_LA95
56099;Laerm;44276;49.534;6.378;2023-09-08T00:00:08;42.76;41.22;44.03;;
56099;Laerm;44276;49.534;6.378;2023-09-08T00:02:36;43.01;41.46;47.30;;
56099;Laerm;44276;49.534;6.378;2023-09-08T00:05:05;42.76;41.38;44.16;;
56099;Laerm;44276;49.534;6.378;2023-09-08T00:07:33;42.72;41.30;43.97;;
56099;Laerm;44276;49.534;6.378;2023-09-08T00:10:02;42.72;41.46;43.99;;
56099;Laerm;44276;49.534;6.378;2023-09-08T00:12:32;42.74;41.22;43.90;;
56099;Laerm;44276;49.534;6.378;2023-09-08T00:15:00;42.71;41.14;43.77;;
56099;Laerm;44276;49.534;6.378;2023-09-08T00:17:29;42.71;41.30;43.81;;
56099;Laerm;44276;49.534;6.378;2023-09-08T00:19:57;42.72;41.22;43.86;;
56099;Laerm;44276;49.534;6.378;2023-09-08T00:22:25;42.80;41.53;45.60;;
56099;Laerm;44276;49.534;6.378;2023-09-08T00:24:54;42.73;41.30;44.01;;
56099;Laerm;44276;49.534;6.378;2023-09-08T00:27:23;42.71;41.06;43.90;;
56099;Laerm;44276;49.534;6.378;2023-09-08T00:29:52;42.80;41.14;46.23;;
56099;Laerm;44276;49.534;6.378;2023-09-08T00:32:21;42.78;41.38;47.44;;
56099;Laerm;44276;49.534;6.378;2023-09-08T00:34:49;42.75;41.14;43.90;;
56099;Laerm;44276;49.534;6.378;2023-09-08T00:37:18;42.77;41.46;43.86;;
56099;Laerm;44276;49.534;6.378;2023-09-08T00:39:46;42.77;41.38;43.94;;
56099;Laerm;44276;49.534;6.378;2023-09-08T00:42:14;42.77;41.38;43.99;;
56099;Laerm;44276;49.534;6.378;2023-09-08T00:44:43;42.84;41.30;44.19;;
56099;Laerm;44276;49.534;6.378;2023-09-08T00:47:13;42.80;41.22;43.94;;
56099;Laerm;44276;49.534;6.378;2023-09-08T00:49:41;42.79;41.46;44.03;;
56099;Laerm;44276;49.534;6.378;2023-09-08T00:52:10;42.80;41.46;44.07;;
56099;Laerm;44276;49.534;6.378;2023-09-08T00:54:38;42.82;41.38;44.04;;
56099;Laerm;44276;49.534;6.378;2023-09-08T00:57:06;42.99;41.30;47.65;;
56099;Laerm;44276;49.534;6.378;2023-09-08T00:59:36;42.85;41.61;44.07;;
56099;Laerm;44276;49.534;6.378;2023-09-08T01:02:05;42.86;41.53;44.07;;
56099;Laerm;44276;49.534;6.378;2023-09-08T01:04:35;42.86;41.53;43.90;;
56099;Laerm;44276;49.534;6.378;2023-09-08T01:07:08;42.89;41.46;44.39;;
56099;Laerm;44276;49.534;6.378;2023-09-08T01:09:37;42.98;41.46;46.13;;
56099;Laerm;44276;49.534;6.378;2023-09-08T01:12:08;42.86;41.38;44.19;;
56099;Laerm;44276;49.534;6.378;2023-09-08T01:14:36;42.85;41.30;44.03;;
56099;Laerm;44276;49.534;6.378;2023-09-08T01:17:04;43.07;41.38;47.14;;
56099;Laerm;44276;49.534;6.378;2023-09-08T01:19:34;42.83;41.46;43.99;;
56099;Laerm;44276;49.534;6.378;2023-09-08T01:22:35;43.09;41.22;48.73;;
56099;Laerm;44276;49.534;6.378;2023-09-08T01:25:23;42.86;41.53;45.57;;
56099;Laerm;44276;49.534;6.378;2023-09-08T01:27:53;42.83;41.38;43.97;;
56099;Laerm;44276;49.534;6.378;2023-09-08T01:30:25;42.83;41.30;43.86;;
56099;Laerm;44276;49.534;6.378;2023-09-08T01:32:55;42.87;41.30;43.90;;
56099;Laerm;44276;49.534;6.378;2023-09-08T01:35:25;42.84;41.06;44.07;;
56099;Laerm;44276;49.534;6.378;2023-09-08T01:37:53;42.95;41.38;46.93;;
56099;Laerm;44276;49.534;6.378;2023-09-08T01:40:23;42.90;41.46;44.54;;
56099;Laerm;44276;49.534;6.378;2023-09-08T01:42:51;42.87;41.22;43.99;;
56099;Laerm;44276;49.534;6.378;2023-09-08T01:45:20;42.88;41.46;44.07;;
56099;Laerm;44276;49.534;6.378;2023-09-08T01:47:48;42.87;41.53;44.07;;
56099;Laerm;44276;49.534;6.378;2023-09-08T01:50:16;42.88;41.53;43.94;;
56099;Laerm;44276;49.534;6.378;2023-09-08T01:52:48;42.87;41.30;43.93;;
56099;Laerm;44276;49.534;6.378;2023-09-08T01:55:17;42.88;41.53;44.03;;
56099;Laerm;44276;49.534;6.378;2023-09-08T01:57:46;42.91;41.46;44.07;;
56099;Laerm;44276;49.534;6.378;2023-09-08T02:00:15;42.91;41.53;44.11;;
56099;Laerm;44276;49.534;6.378;2023-09-08T02:02:44;42.90;41.61;44.19;;
56099;Laerm;44276;49.534;6.378;2023-09-08T02:05:12;42.90;41.61;43.99;;
56099;Laerm;44276;49.534;6.378;2023-09-08T02:07:41;42.95;41.68;44.43;;
56099;Laerm;44276;49.534;6.378;2023-09-08T02:10:09;42.93;41.61;44.27;;
56099;Laerm;44276;49.534;6.378;2023-09-08T02:12:38;42.94;41.46;44.31;;
56099;Laerm;44276;49.534;6.378;2023-09-08T02:15:09;42.89;41.61;44.23;;
56099;Laerm;44276;49.534;6.378;2023-09-08T02:17:38;42.93;41.38;43.94;;
56099;Laerm;44276;49.534;6.378;2023-09-08T02:20:08;43.23;41.46;47.32;;
56099;Laerm;44276;49.534;6.378;2023-09-08T02:22:37;43.10;41.46;44.97;;
56099;Laerm;44276;49.534;6.378;2023-09-08T02:25:06;42.92;41.55;44.07;;
56099;Laerm;44276;49.534;6.378;2023-09-08T02:27:35;42.91;41.61;44.03;;
56099;Laerm;44276;49.534;6.378;2023-09-08T02:30:06;42.92;41.38;44.27;;
56099;Laerm;44276;49.534;6.378;2023-09-08T02:32:36;42.93;41.30;44.39;;
56099;Laerm;44276;49.534;6.378;2023-09-08T02:35:04;42.89;41.53;43.99;;
56099;Laerm;44276;49.534;6.378;2023-09-08T02:37:32;42.89;41.61;43.94;;
56099;Laerm;44276;49.534;6.378;2023-09-08T02:40:02;42.90;41.53;44.03;;
56099;Laerm;44276;49.534;6.378;2023-09-08T02:42:31;42.91;41.53;44.19;;
56099;Laerm;44276;49.534;6.378;2023-09-08T02:45:00;42.99;41.30;45.07;;
56099;Laerm;44276;49.534;6.378;2023-09-08T02:47:28;42.92;41.61;44.08;;
56099;Laerm;44276;49.534;6.378;2023-09-08T02:49:57;42.91;41.38;44.03;;
56099;Laerm;44276;49.534;6.378;2023-09-08T02:52:26;42.93;41.61;44.11;;
56099;Laerm;44276;49.534;6.378;2023-09-08T02:54:54;42.96;41.61;44.19;;
56099;Laerm;44276;49.534;6.378;2023-09-08T02:57:22;43.18;41.61;45.77;;
56099;Laerm;44276;49.534;6.378;2023-09-08T02:59:51;43.01;41.75;44.82;;
56099;Laerm;44276;49.534;6.378;2023-09-08T03:02:19;42.97;41.75;44.23;;
56099;Laerm;44276;49.534;6.378;2023-09-08T03:04:47;42.95;41.68;44.01;;
56099;Laerm;44276;49.534;6.378;2023-09-08T03:07:17;43.01;41.68;44.39;;
56099;Laerm;44276;49.534;6.378;2023-09-08T03:09:45;43.02;41.61;44.31;;
56099;Laerm;44276;49.534;6.378;2023-09-08T03:12:14;43.05;41.68;45.07;;
56099;Laerm;44276;49.534;6.378;2023-09-08T03:14:42;43.05;41.68;44.35;;
56099;Laerm;44276;49.534;6.378;2023-09-08T03:17:11;43.13;41.75;47.65;;
56099;Laerm;44276;49.534;6.378;2023-09-08T03:19:40;42.99;41.68;44.19;;
56099;Laerm;44276;49.534;6.378;2023-09-08T03:22:08;43.10;41.61;47.96;;
56099;Laerm;44276;49.534;6.378;2023-09-08T03:24:38;43.03;41.53;45.07;;
56099;Laerm;44276;49.534;6.378;2023-09-08T03:27:06;43.13;41.06;45.42;;
56099;Laerm;44276;49.534;6.378;2023-09-08T03:29:34;43.03;41.75;45.36;;
56099;Laerm;44276;49.534;6.378;2023-09-08T03:32:03;43.01;41.61;44.35;;
56099;Laerm;44276;49.534;6.378;2023-09-08T03:34:31;43.03;41.61;44.19;;
56099;Laerm;44276;49.534;6.378;2023-09-08T03:37:00;43.12;41.68;47.93;;
56099;Laerm;44276;49.534;6.378;2023-09-08T03:39:28;43.12;41.75;45.97;;
56099;Laerm;44276;49.534;6.378;2023-09-08T03:41:58;43.17;41.30;45.34;;
56099;Laerm;44276;49.534;6.378;2023-09-08T03:44:26;43.03;41.68;44.11;;
56099;Laerm;44276;49.534;6.378;2023-09-08T03:46:55;43.13;41.53;45.57;;
56099;Laerm;44276;49.534;6.378;2023-09-08T03:49:23;43.08;41.61;45.04;;
56099;Laerm;44276;49.534;6.378;2023-09-08T03:51:51;43.15;41.75;44.62;;
56099;Laerm;44276;49.534;6.378;2023-09-08T03:54:19;43.06;41.61;45.04;;
56099;Laerm;44276;49.534;6.378;2023-09-08T03:56:48;43.22;41.75;45.66;;
56099;Laerm;44276;49.534;6.378;2023-09-08T03:59:17;43.02;41.68;44.62;;
56099;Laerm;44276;49.534;6.378;2023-09-08T04:01:45;43.15;41.82;46.33;;
56099;Laerm;44276;49.534;6.378;2023-09-08T04:04:14;43.07;41.75;44.43;;
56099;Laerm;44276;49.534;6.378;2023-09-08T04:06:44;43.37;41.55;49.66;;
56099;Laerm;44276;49.534;6.378;2023-09-08T04:09:12;43.06;41.75;44.27;;
56099;Laerm;44276;49.534;6.378;2023-09-08T04:11:41;43.14;41.68;44.19;;
56099;Laerm;44276;49.534;6.378;2023-09-08T04:14:09;43.15;41.61;44.58;;
56099;Laerm;44276;49.534;6.378;2023-09-08T04:16:39;43.14;41.75;44.47;;
56099;Laerm;44276;49.534;6.378;2023-09-08T04:19:07;43.14;41.61;45.80;;
56099;Laerm;44276;49.534;6.378;2023-09-08T04:21:35;43.26;41.82;45.89;;
56099;Laerm;44276;49.534;6.378;2023-09-08T04:24:05;43.23;41.68;45.99;;
56099;Laerm;44276;49.534;6.378;2023-09-08T04:26:37;43.06;41.46;44.47;;
56099;Laerm;44276;49.534;6.378;2023-09-08T04:29:05;43.14;41.75;44.62;;
56099;Laerm;44276;49.534;6.378;2023-09-08T04:31:33;43.16;41.68;44.94;;
56099;Laerm;44276;49.534;6.378;2023-09-08T04:34:03;43.09;41.75;44.47;;
56099;Laerm;44276;49.534;6.378;2023-09-08T04:36:31;43.08;41.46;44.31;;
56099;Laerm;44276;49.534;6.378;2023-09-08T04:38:59;43.10;41.68;44.54;;
56099;Laerm;44276;49.534;6.378;2023-09-08T04:41:27;43.13;41.75;45.48;;
56099;Laerm;44276;49.534;6.378;2023-09-08T04:43:55;43.15;41.38;44.47;;
56099;Laerm;44276;49.534;6.378;2023-09-08T04:46:25;43.13;41.68;46.55;;
56099;Laerm;44276;49.534;6.378;2023-09-08T04:48:53;43.12;41.82;44.49;;
56099;Laerm;44276;49.534;6.378;2023-09-08T04:51:23;43.13;41.61;44.47;;
56099;Laerm;44276;49.534;6.378;2023-09-08T04:53:51;43.29;41.89;45.14;;
56099;Laerm;44276;49.534;6.378;2023-09-08T04:56:19;43.27;41.68;45.48;;
56099;Laerm;44276;49.534;6.378;2023-09-08T04:58:48;43.07;41.75;44.65;;
56099;Laerm;44276;49.534;6.378;2023-09-08T05:01:16;43.18;41.61;47.28;;
56099;Laerm;44276;49.534;6.378;2023-09-08T05:03:44;43.15;41.61;45.04;;
56099;Laerm;44276;49.534;6.378;2023-09-08T05:06:12;43.10;41.82;44.80;;
56099;Laerm;44276;49.534;6.378;2023-09-08T05:08:42;43.20;41.82;46.78;;
56099;Laerm;44276;49.534;6.378;2023-09-08T05:11:11;43.14;41.75;45.20;;
56099;Laerm;44276;49.534;6.378;2023-09-08T05:13:39;43.11;41.55;44.39;;
56099;Laerm;44276;49.534;6.378;2023-09-08T05:16:07;43.10;41.61;44.39;;
56099;Laerm;44276;49.534;6.378;2023-09-08T05:18:40;43.18;41.75;46.78;;
56099;Laerm;44276;49.534;6.378;2023-09-08T05:21:08;43.10;41.61;44.31;;
56099;Laerm;44276;49.534;6.378;2023-09-08T05:23:36;43.10;41.89;44.47;;
56099;Laerm;44276;49.534;6.378;2023-09-08T05:26:06;43.13;41.68;45.66;;
56099;Laerm;44276;49.534;6.378;2023-09-08T05:28:34;43.26;41.82;46.33;;
56099;Laerm;44276;49.534;6.378;2023-09-08T05:31:05;43.10;41.94;44.54;;
56099;Laerm;44276;49.534;6.378;2023-09-08T05:33:33;43.14;41.82;44.94;;
56099;Laerm;44276;49.534;6.378;2023-09-08T05:36:02;43.12;41.53;44.31;;
56099;Laerm;44276;49.534;6.378;2023-09-08T05:38:30;43.14;41.96;48.88;;
56099;Laerm;44276;49.534;6.378;2023-09-08T05:40:59;43.06;41.75;44.11;;
56099;Laerm;44276;49.534;6.378;2023-09-08T05:43:29;43.09;41.53;44.07;;
56099;Laerm;44276;49.534;6.378;2023-09-08T05:45:57;43.12;41.38;46.25;;
56099;Laerm;44276;49.534;6.378;2023-09-08T05:48:25;43.14;41.75;45.78;;
56099;Laerm;44276;49.534;6.378;2023-09-08T05:50:54;43.15;41.96;44.76;;
56099;Laerm;44276;49.534;6.378;2023-09-08T05:53:22;43.13;41.82;44.39;;
56099;Laerm;44276;49.534;6.378;2023-09-08T05:55:51;43.22;41.75;45.23;;
56099;Laerm;44276;49.534;6.378;2023-09-08T05:58:19;43.20;41.75;44.47;;
56099;Laerm;44276;49.534;6.378;2023-09-08T06:00:49;43.42;42.00;47.74;;
56099;Laerm;44276;49.534;6.378;2023-09-08T06:03:17;43.33;42.09;44.54;;
56099;Laerm;44276;49.534;6.378;2023-09-08T06:05:47;43.32;41.89;44.97;;
56099;Laerm;44276;49.534;6.378;2023-09-08T06:08:16;43.31;42.00;47.20;;
56099;Laerm;44276;49.534;6.378;2023-09-08T06:10:44;43.30;42.03;44.65;;
56099;Laerm;44276;49.534;6.378;2023-09-08T06:13:12;43.34;41.89;44.76;;
56099;Laerm;44276;49.534;6.378;2023-09-08T06:15:40;43.31;41.89;45.57;;
56099;Laerm;44276;49.534;6.378;2023-09-08T06:18:11;43.37;41.96;46.15;;
56099;Laerm;44276;49.534;6.378;2023-09-08T06:20:44;43.35;41.89;48.91;;
56099;Laerm;44276;49.534;6.378;2023-09-08T06:23:14;43.37;41.82;45.07;;
56099;Laerm;44276;49.534;6.378;2023-09-08T06:25:42;43.36;41.89;44.80;;
56099;Laerm;44276;49.534;6.378;2023-09-08T06:28:10;43.39;42.16;45.04;;
56099;Laerm;44276;49.534;6.378;2023-09-08T06:30:38;43.40;42.16;44.80;;
56099;Laerm;44276;49.534;6.378;2023-09-08T06:33:10;43.38;42.16;44.35;;
56099;Laerm;44276;49.534;6.378;2023-09-08T06:35:38;43.45;42.22;44.76;;
56099;Laerm;44276;49.534;6.378;2023-09-08T06:38:07;43.40;42.09;44.54;;
56099;Laerm;44276;49.534;6.378;2023-09-08T06:40:35;43.41;41.96;44.39;;
56099;Laerm;44276;49.534;6.378;2023-09-08T06:43:04;43.44;42.35;44.65;;
56099;Laerm;44276;49.534;6.378;2023-09-08T06:45:32;43.45;42.03;44.58;;
56099;Laerm;44276;49.534;6.378;2023-09-08T06:48:00;43.52;42.29;44.87;;
56099;Laerm;44276;49.534;6.378;2023-09-08T06:50:30;43.49;42.22;44.54;;
56099;Laerm;44276;49.534;6.378;2023-09-08T06:52:59;43.53;42.09;44.97;;
56099;Laerm;44276;49.534;6.378;2023-09-08T06:55:31;43.57;42.16;45.01;;
56099;Laerm;44276;49.534;6.378;2023-09-08T07:01:41;43.59;42.22;45.57;;
56099;Laerm;44276;49.534;6.378;2023-09-08T07:04:09;43.54;42.09;44.83;;
56099;Laerm;44276;49.534;6.378;2023-09-08T07:06:39;43.68;42.47;49.30;;
56099;Laerm;44276;49.534;6.378;2023-09-08T07:09:10;43.61;42.35;44.62;;
56099;Laerm;44276;49.534;6.378;2023-09-08T07:11:38;43.63;42.41;45.69;;
56099;Laerm;44276;49.534;6.378;2023-09-08T07:14:07;43.74;42.22;47.65;;
56099;Laerm;44276;49.534;6.378;2023-09-08T07:16:35;43.71;42.59;44.83;;
56099;Laerm;44276;49.534;6.378;2023-09-08T07:19:04;43.72;42.41;49.49;;
56099;Laerm;44276;49.534;6.378;2023-09-08T07:21:33;43.69;42.53;48.25;;
56099;Laerm;44276;49.534;6.378;2023-09-08T07:24:04;43.86;42.58;47.61;;
56099;Laerm;44276;49.534;6.378;2023-09-08T07:26:32;43.66;42.41;47.26;;
56099;Laerm;44276;49.534;6.378;2023-09-08T07:29:00;43.59;42.16;51.48;;
56099;Laerm;44276;49.534;6.378;2023-09-08T07:31:29;43.25;41.55;46.69;;
56099;Laerm;44276;49.534;6.378;2023-09-08T07:33:57;42.88;41.30;45.07;;
56099;Laerm;44276;49.534;6.378;2023-09-08T07:36:25;47.74;40.98;57.32;;
56099;Laerm;44276;49.534;6.378;2023-09-08T07:38:54;44.86;41.14;50.23;;
56099;Laerm;44276;49.534;6.378;2023-09-08T07:41:23;45.24;40.71;49.97;;
56099;Laerm;44276;49.534;6.378;2023-09-08T07:43:52;46.15;40.13;52.30;;
56099;Laerm;44276;49.534;6.378;2023-09-08T07:46:20;43.69;40.53;50.68;;
56099;Laerm;44276;49.534;6.378;2023-09-08T07:48:49;43.69;40.13;51.17;;
56099;Laerm;44276;49.534;6.378;2023-09-08T07:51:18;46.01;39.70;51.60;;
56099;Laerm;44276;49.534;6.378;2023-09-08T07:53:46;43.26;40.03;49.40;;
56099;Laerm;44276;49.534;6.378;2023-09-08T07:56:15;43.63;40.33;53.81;;
56099;Laerm;44276;49.534;6.378;2023-09-08T07:58:44;43.77;40.80;51.10;;
56099;Laerm;44276;49.534;6.378;2023-09-08T08:01:13;44.05;41.53;49.70;;
56099;Laerm;44276;49.534;6.378;2023-09-08T08:03:42;48.43;40.23;71.35;;
56099;Laerm;44276;49.534;6.378;2023-09-08T08:06:10;45.31;38.52;53.83;;
56099;Laerm;44276;49.534;6.378;2023-09-08T08:08:38;45.03;41.61;48.84;;
56099;Laerm;44276;49.534;6.378;2023-09-08T08:11:11;45.81;42.22;51.04;;
56099;Laerm;44276;49.534;6.378;2023-09-08T08:13:40;44.97;42.76;47.28;;
56099;Laerm;44276;49.534;6.378;2023-09-08T08:16:09;44.99;42.41;48.45;;
56099;Laerm;44276;49.534;6.378;2023-09-08T08:18:38;45.23;42.88;48.60;;
56099;Laerm;44276;49.534;6.378;2023-09-08T08:21:07;45.64;43.39;49.57;;
56099;Laerm;44276;49.534;6.378;2023-09-08T08:23:36;45.63;43.14;49.87;;
56099;Laerm;44276;49.534;6.378;2023-09-08T08:26:05;45.96;43.58;50.37;;
56099;Laerm;44276;49.534;6.378;2023-09-08T08:28:34;46.09;43.54;50.88;;
56099;Laerm;44276;49.534;6.378;2023-09-08T08:31:03;46.62;43.72;52.97;;
56099;Laerm;44276;49.534;6.378;2023-09-08T08:33:33;47.54;44.19;52.64;;
56099;Laerm;44276;49.534;6.378;2023-09-08T08:36:01;46.98;44.35;51.67;;
56099;Laerm;44276;49.534;6.378;2023-09-08T08:38:29;47.66;44.15;57.34;;
56099;Laerm;44276;49.534;6.378;2023-09-08T08:41:03;47.14;43.24;55.18;;
56099;Laerm;44276;49.534;6.378;2023-09-08T08:43:33;46.89;43.49;54.60;;
56099;Laerm;44276;49.534;6.378;2023-09-08T08:46:03;47.62;43.99;56.59;;
56099;Laerm;44276;49.534;6.378;2023-09-08T08:48:35;47.15;43.72;54.91;;
56099;Laerm;44276;49.534;6.378;2023-09-08T08:51:05;48.83;44.87;53.37;;
56099;Laerm;44276;49.534;6.378;2023-09-08T08:53:35;49.00;44.51;54.75;;
56099;Laerm;44276;49.534;6.378;2023-09-08T08:56:06;48.75;44.54;53.99;;
56099;Laerm;44276;49.534;6.378;2023-09-08T08:58:37;48.85;44.31;54.64;;
56099;Laerm;44276;49.534;6.378;2023-09-08T09:01:10;49.40;44.42;54.12;;
56099;Laerm;44276;49.534;6.378;2023-09-08T09:03:42;49.62;45.04;53.62;;
56099;Laerm;44276;49.534;6.378;2023-09-08T09:06:12;49.53;44.87;54.69;;
56099;Laerm;44276;49.534;6.378;2023-09-08T09:08:43;50.08;45.65;59.04;;
56099;Laerm;44276;49.534;6.378;2023-09-08T09:11:12;55.11;43.24;75.27;;
56099;Laerm;44276;49.534;6.378;2023-09-08T09:13:40;55.31;46.28;62.82;;
56099;Laerm;44276;49.534;6.378;2023-09-08T09:16:09;53.15;47.28;60.38;;
56099;Laerm;44276;49.534;6.378;2023-09-08T09:21:44;61.37;43.77;75.17;;
56099;Laerm;44276;49.534;6.378;2023-09-08T09:24:15;58.70;47.28;69.76;;
56099;Laerm;44276;49.534;6.378;2023-09-08T09:26:51;58.24;45.51;69.33;;
56099;Laerm;44276;49.534;6.378;2023-09-08T09:29:20;54.78;43.77;69.05;;
56099;Laerm;44276;49.534;6.378;2023-09-08T09:31:52;53.32;43.09;66.15;;
56099;Laerm;44276;49.534;6.378;2023-09-08T09:34:22;53.41;42.59;68.25;;
56099;Laerm;44276;49.534;6.378;2023-09-08T09:36:52;52.02;45.83;68.85;;
56099;Laerm;44276;49.534;6.378;2023-09-08T09:39:22;50.89;44.87;57.98;;
56099;Laerm;44276;49.534;6.378;2023-09-08T09:41:54;50.10;45.97;57.09;;
56099;Laerm;44276;49.534;6.378;2023-09-08T09:44:24;49.97;44.86;57.76;;
56099;Laerm;44276;49.534;6.378;2023-09-08T09:46:53;50.18;45.01;60.40;;
56099;Laerm;44276;49.534;6.378;2023-09-08T09:49:22;50.13;43.39;58.54;;
56099;Laerm;44276;49.534;6.378;2023-09-08T09:51:55;51.05;43.68;57.57;;
56099;Laerm;44276;49.534;6.378;2023-09-08T09:54:23;50.24;42.88;60.25;;
56099;Laerm;44276;49.534;6.378;2023-09-08T09:56:52;52.28;43.86;63.01;;
56099;Laerm;44276;49.534;6.378;2023-09-08T09:59:22;57.52;43.81;76.63;;
56099;Laerm;44276;49.534;6.378;2023-09-08T10:01:53;52.80;44.07;75.56;;
56099;Laerm;44276;49.534;6.378;2023-09-08T10:04:22;57.20;45.89;74.77;;
56099;Laerm;44276;49.534;6.378;2023-09-08T10:06:51;54.80;46.59;70.22;;
56099;Laerm;44276;49.534;6.378;2023-09-08T10:09:21;57.60;44.23;71.28;;
56099;Laerm;44276;49.534;6.378;2023-09-08T10:11:51;54.20;46.48;62.88;;
56099;Laerm;44276;49.534;6.378;2023-09-08T10:14:25;51.90;43.85;65.53;;
56099;Laerm;44276;49.534;6.378;2023-09-08T10:16:57;56.99;39.08;70.88;;
56099;Laerm;44276;49.534;6.378;2023-09-08T10:19:28;59.58;42.71;72.34;;
56099;Laerm;44276;49.534;6.378;2023-09-08T10:22:00;59.05;49.15;72.08;;
56099;Laerm;44276;49.534;6.378;2023-09-08T10:24:34;59.21;45.77;73.92;;
56099;Laerm;44276;49.534;6.378;2023-09-08T10:27:09;58.16;48.55;73.77;;
56099;Laerm;44276;49.534;6.378;2023-09-08T10:29:38;58.11;48.85;73.99;;
56099;Laerm;44276;49.534;6.378;2023-09-08T10:32:08;55.44;46.13;74.16;;
56099;Laerm;44276;49.534;6.378;2023-09-08T10:34:38;54.37;45.86;71.18;;
56099;Laerm;44276;49.534;6.378;2023-09-08T10:37:19;56.81;35.04;73.89;;
56099;Laerm;44276;49.534;6.378;2023-09-08T10:39:49;53.50;37.32;80.88;;
56099;Laerm;44276;49.534;6.378;2023-09-08T10:42:25;49.36;37.88;63.37;;
56099;Laerm;44276;49.534;6.378;2023-09-08T10:44:57;50.58;36.45;66.10;;
56099;Laerm;44276;49.534;6.378;2023-09-08T10:47:32;50.62;32.93;62.06;;
56099;Laerm;44276;49.534;6.378;2023-09-08T10:50:05;49.78;37.12;71.52;;
56099;Laerm;44276;49.534;6.378;2023-09-08T10:52:35;50.68;33.44;64.60;;
56099;Laerm;44276;49.534;6.378;2023-09-08T10:55:05;55.63;36.45;70.44;;
56099;Laerm;44276;49.534;6.378;2023-09-08T10:57:34;49.31;38.52;63.07;;
56099;Laerm;44276;49.534;6.378;2023-09-08T11:00:04;46.52;34.69;64.89;;
56099;Laerm;44276;49.534;6.378;2023-09-08T11:02:40;45.74;35.94;66.21;;
56099;Laerm;44276;49.534;6.378;2023-09-08T11:05:11;50.65;35.94;72.70;;
56099;Laerm;44276;49.534;6.378;2023-09-08T11:07:41;48.14;35.94;69.27;;
56099;Laerm;44276;49.534;6.378;2023-09-08T11:10:13;53.47;34.69;76.82;;
56099;Laerm;44276;49.534;6.378;2023-09-08T11:12:41;50.02;33.44;78.79;;
56099;Laerm;44276;49.534;6.378;2023-09-08T11:15:10;46.37;36.69;68.07;;
56099;Laerm;44276;49.534;6.378;2023-09-08T11:17:38;48.26;35.04;70.64;;
56099;Laerm;44276;49.534;6.378;2023-09-08T11:20:10;47.80;34.69;67.86;;
56099;Laerm;44276;49.534;6.378;2023-09-08T11:22:39;47.98;35.66;67.80;;
56099;Laerm;44276;49.534;6.378;2023-09-08T11:25:09;47.63;33.90;60.66;;
56099;Laerm;44276;49.534;6.378;2023-09-08T11:27:40;47.90;37.88;59.20;;
56099;Laerm;44276;49.534;6.378;2023-09-08T11:30:09;47.29;36.69;59.63;;
56099;Laerm;44276;49.534;6.378;2023-09-08T11:32:37;47.43;34.69;59.73;;
56099;Laerm;44276;49.534;6.378;2023-09-08T11:35:08;48.65;36.20;63.87;;
56099;Laerm;44276;49.534;6.378;2023-09-08T11:37:38;47.46;37.12;60.56;;
56099;Laerm;44276;49.534;6.378;2023-09-08T11:40:09;47.41;37.88;66.61;;
56099;Laerm;44276;49.534;6.378;2023-09-08T11:42:42;46.74;35.04;62.99;;
56099;Laerm;44276;49.534;6.378;2023-09-08T11:45:12;45.50;34.31;59.94;;
56099;Laerm;44276;49.534;6.378;2023-09-08T11:47:42;46.36;36.91;60.26;;
56099;Laerm;44276;49.534;6.378;2023-09-08T11:50:11;48.11;33.90;64.53;;
56099;Laerm;44276;49.534;6.378;2023-09-08T11:52:44;47.16;36.91;72.44;;
56099;Laerm;44276;49.534;6.378;2023-09-08T11:55:14;48.18;36.45;64.10;;
56099;Laerm;44276;49.534;6.378;2023-09-08T11:57:48;46.73;37.12;71.65;;
56099;Laerm;44276;49.534;6.378;2023-09-08T12:00:19;47.90;33.44;61.18;;
56099;Laerm;44276;49.534;6.378;2023-09-08T12:02:50;49.67;35.94;64.13;;
56099;Laerm;44276;49.534;6.378;2023-09-08T12:05:23;49.80;36.20;64.23;;
56099;Laerm;44276;49.534;6.378;2023-09-08T12:07:53;50.94;34.31;62.87;;
56099;Laerm;44276;49.534;6.378;2023-09-08T12:10:22;50.15;36.45;67.71;;
56099;Laerm;44276;49.534;6.378;2023-09-08T12:12:53;51.55;35.36;67.09;;
56099;Laerm;44276;49.534;6.378;2023-09-08T12:15:31;50.78;33.44;71.71;;
56099;Laerm;44276;49.534;6.378;2023-09-08T12:18:01;50.43;36.20;61.80;;
56099;Laerm;44276;49.534;6.378;2023-09-08T12:20:31;50.18;36.91;68.96;;
56099;Laerm;44276;49.534;6.378;2023-09-08T12:23:02;48.10;32.93;60.09;;
56099;Laerm;44276;49.534;6.378;2023-09-08T12:25:31;49.14;37.70;60.58;;
56099;Laerm;44276;49.534;6.378;2023-09-08T12:28:05;50.31;39.08;62.22;;
56099;Laerm;44276;49.534;6.378;2023-09-08T12:30:33;50.32;39.08;73.56;;
56099;Laerm;44276;49.534;6.378;2023-09-08T12:33:02;49.53;37.32;72.93;;
56099;Laerm;44276;49.534;6.378;2023-09-08T12:35:30;53.32;34.31;72.44;;
56099;Laerm;44276;49.534;6.378;2023-09-08T12:38:01;48.50;38.37;71.12;;
56099;Laerm;44276;49.534;6.378;2023-09-08T12:40:32;47.15;37.52;56.30;;
56099;Laerm;44276;49.534;6.378;2023-09-08T12:43:01;46.93;35.04;70.69;;
56099;Laerm;44276;49.534;6.378;2023-09-08T12:45:50;47.89;35.66;68.12;;
56099;Laerm;44276;49.534;6.378;2023-09-08T12:48:19;47.42;37.12;60.62;;
56099;Laerm;44276;49.534;6.378;2023-09-08T12:50:47;48.08;34.31;70.86;;
56099;Laerm;44276;49.534;6.378;2023-09-08T12:53:16;49.47;36.91;71.50;;
56099;Laerm;44276;49.534;6.378;2023-09-08T12:55:45;48.54;32.93;69.39;;
56099;Laerm;44276;49.534;6.378;2023-09-08T12:58:13;48.22;32.35;58.51;;
56099;Laerm;44276;49.534;6.378;2023-09-08T13:00:42;48.81;35.04;57.50;;
56099;Laerm;44276;49.534;6.378;2023-09-08T13:03:12;50.07;32.35;58.28;;
56099;Laerm;44276;49.534;6.378;2023-09-08T13:05:40;44.49;33.44;59.76;;
56099;Laerm;44276;49.534;6.378;2023-09-08T13:08:09;49.22;35.36;62.57;;
56099;Laerm;44276;49.534;6.378;2023-09-08T13:10:38;47.38;33.97;64.25;;
56099;Laerm;44276;49.534;6.378;2023-09-08T13:13:06;50.89;36.69;65.96;;
56099;Laerm;44276;49.534;6.378;2023-09-08T13:15:34;51.21;37.32;71.67;;
56099;Laerm;44276;49.534;6.378;2023-09-08T13:18:03;48.78;37.12;67.17;;
56099;Laerm;44276;49.534;6.378;2023-09-08T13:20:33;50.71;36.20;62.63;;
56099;Laerm;44276;49.534;6.378;2023-09-08T13:23:01;46.32;32.35;60.80;;
56099;Laerm;44276;49.534;6.378;2023-09-08T13:25:29;46.14;33.44;62.81;;
56099;Laerm;44276;49.534;6.378;2023-09-08T13:27:57;45.90;35.36;63.21;;
56099;Laerm;44276;49.534;6.378;2023-09-08T13:30:26;46.84;38.05;64.16;;
56099;Laerm;44276;49.534;6.378;2023-09-08T13:32:54;46.02;35.66;57.87;;
56099;Laerm;44276;49.534;6.378;2023-09-08T13:35:23;44.54;35.36;56.99;;
56099;Laerm;44276;49.534;6.378;2023-09-08T13:37:52;45.39;35.66;59.04;;
56099;Laerm;44276;49.534;6.378;2023-09-08T13:40:20;44.49;33.90;56.10;;
56099;Laerm;44276;49.534;6.378;2023-09-08T13:42:48;46.62;35.94;64.18;;
56099;Laerm;44276;49.534;6.378;2023-09-08T13:45:17;44.89;34.31;55.47;;
56099;Laerm;44276;49.534;6.378;2023-09-08T13:47:45;46.55;36.45;59.72;;
56099;Laerm;44276;49.534;6.378;2023-09-08T13:50:14;45.84;32.93;74.37;;
56099;Laerm;44276;49.534;6.378;2023-09-08T13:52:43;45.80;32.35;64.09;;
56099;Laerm;44276;49.534;6.378;2023-09-08T13:55:15;45.78;34.31;58.63;;
56099;Laerm;44276;49.534;6.378;2023-09-08T13:57:46;46.32;37.70;56.58;;
56099;Laerm;44276;49.534;6.378;2023-09-08T14:00:16;44.43;36.20;56.63;;
56099;Laerm;44276;49.534;6.378;2023-09-08T14:02:50;43.60;37.32;50.80;;